Wind From: 13-12-2017 10:08 Until: 14-12-2017 06:00 warning for: Wind Level: Yellow info button

Although rather usual in this region, locally or potentially dangerous phenomena are expected. (such as local winds, summer thunderstorms, rising streams or high waves) Be aware and pay attention to the latest weather updates, especially if you carry out activities exposed to weather or close to a stream or shoreline. 


Meteo18 Weather Cam more information Meteo18 Weather Cam


Thunder radar more information blitzortung!


Rain radar more information rain snow radar


Visit our other weather sites:

Template documentation
and downloads

And another site



Weather Underground History page Text

Daily Summary for March 25, 2017 Units:  Metric    English   Both
« Previous Day
Next Day »
Daily Weekly Monthly Yearly Custom
  High: Low: Average:
Temperature: 17.0 °C 6.4 °C 11.2 °C
Dew Point: 10.3 °C 5.2 °C 7.4 °C
Humidity: 92 % 63 % 78 %
Wind Speed: 30.6 km/h 0.0 km/h 8.5 km/h
Wind Gust: 35.4 km/h - -
Wind:- - East
Pressure: 1022.6 hPa 1016.1 hPa -
Precipitation: 0.0 mm    
Historical Graphs
 
 
Tabular Data for March 25, 2017
Time Temperature Dew Point Pressure Wind Wind Speed Wind Gust Humidity Rainfall Rate (Hourly)
00:02 9.3 °C 7.4 °C 1022.6 hPa NNE 6.4 km/h 19.3 km/h 88 % 0.0 mm
00:07 9.2 °C 7.3 °C 1022.6 hPa North 19.3 km/h 19.3 km/h 88 % 0.0 mm
00:12 9.2 °C 7.3 °C 1022.2 hPa NE 1.6 km/h 19.3 km/h 88 % 0.0 mm
00:17 9.2 °C 7.3 °C 1022.2 hPa NE 16.1 km/h 20.9 km/h 88 % 0.0 mm
00:22 9.2 °C 7.3 °C 1022.2 hPa NNW 6.4 km/h 22.5 km/h 88 % 0.0 mm
00:32 9.0 °C 7.1 °C 1022.2 hPa NE 12.9 km/h 22.5 km/h 88 % 0.0 mm
00:37 8.9 °C 7.0 °C 1022.2 hPa NNE 4.8 km/h 22.5 km/h 88 % 0.0 mm
00:42 8.9 °C 7.0 °C 1022.2 hPa North 14.5 km/h 22.5 km/h 88 % 0.0 mm
00:52 8.9 °C 7.0 °C 1022.2 hPa North 8.0 km/h 22.5 km/h 88 % 0.0 mm
00:57 8.8 °C 6.9 °C 1022.2 hPa NNE 6.4 km/h 25.7 km/h 88 % 0.0 mm
01:02 8.7 °C 6.8 °C 1022.2 hPa NNE 8.0 km/h 25.7 km/h 88 % 0.0 mm
01:12 8.7 °C 6.8 °C 1022.2 hPa North 6.4 km/h 25.7 km/h 88 % 0.0 mm
01:17 8.7 °C 6.8 °C 1022.2 hPa NE 4.8 km/h 24.1 km/h 88 % 0.0 mm
01:22 8.6 °C 6.7 °C 1022.2 hPa NW 8.0 km/h 24.1 km/h 88 % 0.0 mm
01:27 8.6 °C 6.7 °C 1022.2 hPa NNE 12.9 km/h 24.1 km/h 88 % 0.0 mm
01:32 8.6 °C 6.7 °C 1022.2 hPa NNE 12.9 km/h 24.1 km/h 88 % 0.0 mm
01:37 8.6 °C 6.7 °C 1021.9 hPa North 8.0 km/h 22.5 km/h 88 % 0.0 mm
01:42 8.5 °C 6.8 °C 1021.9 hPa NNE 19.3 km/h 22.5 km/h 89 % 0.0 mm
01:47 8.5 °C 6.8 °C 1021.9 hPa NW 12.9 km/h 22.5 km/h 89 % 0.0 mm
01:52 8.5 °C 6.8 °C 1021.9 hPa NE 9.7 km/h 22.5 km/h 89 % 0.0 mm
01:57 8.4 °C 6.7 °C 1021.9 hPa NNE 6.4 km/h 25.7 km/h 89 % 0.0 mm
02:02 8.5 °C 6.6 °C 1021.6 hPa NNE 17.7 km/h 25.7 km/h 88 % 0.0 mm
02:12 8.5 °C 6.6 °C 1021.6 hPa NNE 14.5 km/h 25.7 km/h 88 % 0.0 mm
02:17 8.4 °C 6.7 °C 1021.6 hPa NNW 4.8 km/h 30.6 km/h 89 % 0.0 mm
02:22 8.3 °C 6.6 °C 1021.6 hPa North 3.2 km/h 30.6 km/h 89 % 0.0 mm
02:27 8.2 °C 6.5 °C 1021.6 hPa North 6.4 km/h 19.3 km/h 89 % 0.0 mm
02:32 8.2 °C 6.7 °C 1021.2 hPa NE 8.0 km/h 19.3 km/h 90 % 0.0 mm
02:37 8.2 °C 6.7 °C 1021.2 hPa NNE 16.1 km/h 20.9 km/h 90 % 0.0 mm
02:42 8.1 °C 6.6 °C 1021.2 hPa NNW 6.4 km/h 20.9 km/h 90 % 0.0 mm
02:52 8.2 °C 6.5 °C 1021.2 hPa North 6.4 km/h 20.9 km/h 89 % 0.0 mm
02:57 8.1 °C 6.4 °C 1021.2 hPa NE 11.3 km/h 27.4 km/h 89 % 0.0 mm
03:02 8.0 °C 6.3 °C 1021.2 hPa North 11.3 km/h 27.4 km/h 89 % 0.0 mm
03:12 7.9 °C 6.4 °C 1020.9 hPa NW 6.4 km/h 27.4 km/h 90 % 0.0 mm
03:17 7.9 °C 6.4 °C 1020.9 hPa NE 4.8 km/h 24.1 km/h 90 % 0.0 mm
03:22 7.9 °C 6.4 °C 1020.9 hPa NNE 16.1 km/h 24.1 km/h 90 % 0.0 mm
03:32 7.7 °C 6.2 °C 1020.5 hPa Calm   17.7 km/h 90 % 0.0 mm
03:42 7.7 °C 6.2 °C 1020.5 hPa NE 19.3 km/h 19.3 km/h 90 % 0.0 mm
03:52 7.8 °C 6.3 °C 1020.5 hPa ENE 20.9 km/h 20.9 km/h 90 % 0.0 mm
03:57 7.9 °C 6.2 °C 1020.2 hPa NE 24.1 km/h 29.0 km/h 89 % 0.0 mm
04:02 7.9 °C 6.2 °C 1020.2 hPa NNE 19.3 km/h 29.0 km/h 89 % 0.0 mm
04:12 7.9 °C 6.2 °C 1020.2 hPa North 11.3 km/h 29.0 km/h 89 % 0.0 mm
04:17 7.9 °C 6.2 °C 1020.2 hPa North 6.4 km/h 30.6 km/h 89 % 0.0 mm
04:22 7.8 °C 6.1 °C 1020.5 hPa NNE 16.1 km/h 30.6 km/h 89 % 0.0 mm
04:27 7.8 °C 6.1 °C 1020.5 hPa NE 14.5 km/h 25.7 km/h 89 % 0.0 mm
04:32 7.7 °C 6.0 °C 1020.5 hPa NNE 16.1 km/h 25.7 km/h 89 % 0.0 mm
04:42 7.6 °C 6.1 °C 1020.2 hPa NE 9.7 km/h 27.4 km/h 90 % 0.0 mm
04:47 7.5 °C 6.0 °C 1020.2 hPa NNE 8.0 km/h 27.4 km/h 90 % 0.0 mm
04:52 7.4 °C 5.9 °C 1020.2 hPa NE 9.7 km/h 27.4 km/h 90 % 0.0 mm
04:57 7.4 °C 5.9 °C 1020.2 hPa NE 8.0 km/h 27.4 km/h 90 % 0.0 mm
05:02 7.3 °C 5.8 °C 1020.2 hPa ENE 16.1 km/h 24.1 km/h 90 % 0.0 mm
05:12 7.3 °C 5.9 °C 1020.2 hPa NNE 11.3 km/h 16.1 km/h 91 % 0.0 mm
05:17 7.3 °C 5.8 °C 1020.2 hPa NNE 20.9 km/h 20.9 km/h 90 % 0.0 mm
05:22 7.3 °C 5.8 °C 1020.2 hPa NE 1.6 km/h 20.9 km/h 90 % 0.0 mm
05:32 7.2 °C 5.7 °C 1019.9 hPa North 3.2 km/h 20.9 km/h 90 % 0.0 mm
05:37 7.1 °C 5.7 °C 1019.9 hPa NNE 6.4 km/h 20.9 km/h 91 % 0.0 mm
05:42 7.0 °C 5.6 °C 1019.9 hPa NE 9.7 km/h 17.7 km/h 91 % 0.0 mm
05:47 6.9 °C 5.5 °C 1019.9 hPa Calm   17.7 km/h 91 % 0.0 mm
05:52 6.9 °C 5.5 °C 1019.9 hPa NNE 3.2 km/h 17.7 km/h 91 % 0.0 mm
06:02 6.9 °C 5.5 °C 1019.9 hPa NE 4.8 km/h 12.9 km/h 91 % 0.0 mm
06:12 6.9 °C 5.5 °C 1019.5 hPa NNE 8.0 km/h 17.7 km/h 91 % 0.0 mm
06:17 6.7 °C 5.3 °C 1019.9 hPa NNE 8.0 km/h 17.7 km/h 91 % 0.0 mm
06:22 6.7 °C 5.3 °C 1019.9 hPa NNE 6.4 km/h 17.7 km/h 91 % 0.0 mm
06:32 6.4 °C 5.2 °C 1019.5 hPa NE 3.2 km/h 17.7 km/h 92 % 0.0 mm
06:42 6.6 °C 5.4 °C 1019.5 hPa NNE 11.3 km/h 14.5 km/h 92 % 0.0 mm
06:47 6.7 °C 5.5 °C 1019.5 hPa NNE 1.6 km/h 14.5 km/h 92 % 0.0 mm
06:52 6.7 °C 5.3 °C 1019.5 hPa NNE 8.0 km/h 19.3 km/h 91 % 0.0 mm
07:02 6.6 °C 5.2 °C 1019.2 hPa NNE 16.1 km/h 19.3 km/h 91 % 0.0 mm
07:12 6.7 °C 5.3 °C 1019.2 hPa ENE 4.8 km/h 22.5 km/h 91 % 0.0 mm
07:17 6.8 °C 5.4 °C 1019.2 hPa NE 4.8 km/h 22.5 km/h 91 % 0.0 mm
07:22 6.9 °C 5.5 °C 1019.2 hPa NNE 11.3 km/h 22.5 km/h 91 % 0.0 mm
07:32 6.9 °C 5.4 °C 1018.8 hPa NNW 8.0 km/h 20.9 km/h 90 % 0.0 mm
07:42 7.1 °C 5.6 °C 1018.8 hPa NE 22.5 km/h 29.0 km/h 90 % 0.0 mm
07:47 7.1 °C 5.6 °C 1018.8 hPa NE 16.1 km/h 29.0 km/h 90 % 0.0 mm
07:57 7.2 °C 5.5 °C 1018.8 hPa NNE 16.1 km/h 29.0 km/h 89 % 0.0 mm
08:12 7.4 °C 5.7 °C 1018.8 hPa NE 19.3 km/h 29.0 km/h 89 % 0.0 mm
08:17 7.5 °C 5.8 °C 1019.2 hPa NNE 16.1 km/h 29.0 km/h 89 % 0.0 mm
08:22 7.6 °C 5.9 °C 1019.2 hPa NE 20.9 km/h 29.0 km/h 89 % 0.0 mm
08:32 7.8 °C 5.9 °C 1019.2 hPa NNE 17.7 km/h 25.7 km/h 88 % 0.0 mm
08:42 7.9 °C 5.9 °C 1019.2 hPa NE 20.9 km/h 27.4 km/h 87 % 0.0 mm
08:47 8.0 °C 6.0 °C 1019.2 hPa North 14.5 km/h 27.4 km/h 87 % 0.0 mm
08:52 8.2 °C 6.2 °C 1018.8 hPa NE 12.9 km/h 30.6 km/h 87 % 0.0 mm
09:02 8.4 °C 6.4 °C 1018.8 hPa NNE 17.7 km/h 30.6 km/h 87 % 0.0 mm
09:12 8.8 °C 6.6 °C 1018.8 hPa NNE 12.9 km/h 27.4 km/h 86 % 0.0 mm
09:17 8.9 °C 6.5 °C 1018.8 hPa NE 9.7 km/h 27.4 km/h 85 % 0.0 mm
09:22 9.1 °C 6.7 °C 1018.8 hPa ENE 11.3 km/h 29.0 km/h 85 % 0.0 mm
09:32 9.2 °C 6.6 °C 1018.8 hPa NE 19.3 km/h 27.4 km/h 84 % 0.0 mm
09:37 9.3 °C 6.7 °C 1018.8 hPa ENE 12.9 km/h 27.4 km/h 84 % 0.0 mm
09:42 9.4 °C 6.7 °C 1018.5 hPa NE 8.0 km/h 29.0 km/h 83 % 0.0 mm
09:52 9.6 °C 6.9 °C 1018.5 hPa East 16.1 km/h 29.0 km/h 83 % 0.0 mm
09:57 9.8 °C 7.1 °C 1018.5 hPa NNE 22.5 km/h 29.0 km/h 83 % 0.0 mm
10:02 9.8 °C 6.9 °C 1018.5 hPa NE 11.3 km/h 29.0 km/h 82 % 0.0 mm
10:12 10.1 °C 7.2 °C 1018.5 hPa NE 24.1 km/h 32.2 km/h 82 % 0.0 mm
10:22 10.2 °C 7.3 °C 1018.2 hPa NNE 24.1 km/h 27.4 km/h 82 % 0.0 mm
10:27 10.3 °C 7.4 °C 1017.8 hPa NNE 20.9 km/h 27.4 km/h 82 % 0.0 mm
10:32 10.3 °C 7.2 °C 1017.8 hPa NE 12.9 km/h 27.4 km/h 81 % 0.0 mm
10:42 10.6 °C 7.3 °C 1017.8 hPa NE 14.5 km/h 30.6 km/h 80 % 0.0 mm
10:47 10.8 °C 7.5 °C 1017.8 hPa NNE 8.0 km/h 30.6 km/h 80 % 0.0 mm
10:52 11.1 °C 8.0 °C 1017.8 hPa NE 19.3 km/h 24.1 km/h 81 % 0.0 mm
10:57 11.1 °C 7.6 °C 1017.8 hPa NE 19.3 km/h 24.1 km/h 79 % 0.0 mm
11:02 11.1 °C 7.6 °C 1017.5 hPa North 30.6 km/h 30.6 km/h 79 % 0.0 mm
11:12 11.6 °C 8.1 °C 1017.5 hPa NNE 19.3 km/h 30.6 km/h 79 % 0.0 mm
11:17 11.6 °C 7.9 °C 1017.5 hPa NE 12.9 km/h 30.6 km/h 78 % 0.0 mm
11:27 11.8 °C 8.1 °C 1017.5 hPa NE 11.3 km/h 27.4 km/h 78 % 0.0 mm
11:32 11.9 °C 8.0 °C 1017.2 hPa NE 17.7 km/h 27.4 km/h 77 % 0.0 mm
11:37 12.0 °C 8.3 °C 1017.2 hPa ENE 14.5 km/h 27.4 km/h 78 % 0.0 mm
11:42 12.2 °C 8.3 °C 1017.2 hPa ENE 22.5 km/h 30.6 km/h 77 % 0.0 mm
11:52 12.3 °C 8.2 °C 1017.2 hPa NE 27.4 km/h 35.4 km/h 76 % 0.0 mm
11:57 12.5 °C 8.4 °C 1017.2 hPa NE 16.1 km/h 35.4 km/h 76 % 0.0 mm
12:02 12.7 °C 8.4 °C 1017.5 hPa NE 16.1 km/h 32.2 km/h 75 % 0.0 mm
12:12 12.9 °C 8.4 °C 1017.2 hPa NNE 16.1 km/h 30.6 km/h 74 % 0.0 mm
12:17 13.0 °C 8.3 °C 1017.2 hPa ENE 19.3 km/h 30.6 km/h 73 % 0.0 mm
12:22 13.1 °C 8.6 °C 1017.2 hPa NNE 11.3 km/h 29.0 km/h 74 % 0.0 mm
12:32 13.4 °C 8.9 °C 1017.2 hPa NE 20.9 km/h 29.0 km/h 74 % 0.0 mm
12:37 13.5 °C 8.8 °C 1016.8 hPa NNE 9.7 km/h 29.0 km/h 73 % 0.0 mm
12:42 13.7 °C 8.5 °C 1016.8 hPa North 27.4 km/h 29.0 km/h 71 % 0.0 mm
12:47 13.8 °C 8.6 °C 1016.8 hPa NE 20.9 km/h 29.0 km/h 71 % 0.0 mm
12:52 14.1 °C 9.1 °C 1016.8 hPa NE 12.9 km/h 32.2 km/h 72 % 0.0 mm
13:02 14.2 °C 9.0 °C 1016.5 hPa East 12.9 km/h 32.2 km/h 71 % 0.0 mm
13:12 14.4 °C 9.0 °C 1016.5 hPa NE 12.9 km/h 29.0 km/h 70 % 0.0 mm
13:17 14.5 °C 9.1 °C 1016.5 hPa NNE 14.5 km/h 27.4 km/h 70 % 0.0 mm
13:22 14.5 °C 8.4 °C 1016.5 hPa NE 9.7 km/h 27.4 km/h 67 % 0.0 mm
13:32 14.7 °C 9.1 °C 1016.5 hPa ENE 19.3 km/h 29.0 km/h 69 % 0.0 mm
13:37 14.8 °C 9.4 °C 1016.8 hPa ENE 9.7 km/h 29.0 km/h 70 % 0.0 mm
13:42 15.0 °C 9.1 °C 1016.5 hPa NE 24.1 km/h 24.1 km/h 68 % 0.0 mm
13:47 15.0 °C 9.1 °C 1016.5 hPa NE 17.7 km/h 27.4 km/h 68 % 0.0 mm
13:52 15.2 °C 9.3 °C 1016.5 hPa NE 12.9 km/h 27.4 km/h 68 % 0.0 mm
14:02 15.3 °C 9.2 °C 1016.5 hPa NNE 17.7 km/h 24.1 km/h 67 % 0.0 mm
14:17 15.4 °C 9.5 °C 1016.1 hPa ENE 14.5 km/h 27.4 km/h 68 % 0.0 mm
14:22 15.6 °C 9.5 °C 1016.1 hPa NE 16.1 km/h 25.7 km/h 67 % 0.0 mm
14:32 15.8 °C 9.5 °C 1016.1 hPa ENE 14.5 km/h 24.1 km/h 66 % 0.0 mm
14:37 15.9 °C 9.6 °C 1016.1 hPa ENE 17.7 km/h 22.5 km/h 66 % 0.0 mm
14:52 16.2 °C 9.1 °C 1016.1 hPa NE 8.0 km/h 29.0 km/h 63 % 0.0 mm
14:57 16.2 °C 9.4 °C 1016.1 hPa ENE 9.7 km/h 20.9 km/h 64 % 0.0 mm
15:02 16.4 °C 9.8 °C 1016.5 hPa ENE 9.7 km/h 20.9 km/h 65 % 0.0 mm
15:12 16.6 °C 10.0 °C 1016.5 hPa ENE 4.8 km/h 19.3 km/h 65 % 0.0 mm
15:17 16.5 °C 9.7 °C 1016.5 hPa SSE 4.8 km/h 19.3 km/h 64 % 0.0 mm
15:22 16.6 °C 9.5 °C 1016.5 hPa NNE 1.6 km/h 17.7 km/h 63 % 0.0 mm
15:32 16.8 °C 9.7 °C 1016.5 hPa ENE 3.2 km/h 17.7 km/h 63 % 0.0 mm
15:37 16.8 °C 9.7 °C 1016.5 hPa East 1.6 km/h 8.0 km/h 63 % 0.0 mm
15:42 16.9 °C 10.3 °C 1016.5 hPa ENE 3.2 km/h 6.4 km/h 65 % 0.0 mm
15:47 16.8 °C 9.7 °C 1016.1 hPa ESE 3.2 km/h 8.0 km/h 63 % 0.0 mm
15:52 16.7 °C 9.6 °C 1016.1 hPa East 1.6 km/h 8.0 km/h 63 % 0.0 mm
15:57 16.7 °C 9.6 °C 1016.1 hPa East 1.6 km/h 8.0 km/h 63 % 0.0 mm
16:02 16.9 °C 9.8 °C 1016.1 hPa Calm   8.0 km/h 63 % 0.0 mm
16:12 17.0 °C 9.9 °C 1016.1 hPa East 1.6 km/h 4.8 km/h 63 % 0.0 mm
16:17 16.9 °C 10.0 °C 1016.1 hPa NE 1.6 km/h 6.4 km/h 64 % 0.0 mm
16:22 16.8 °C 9.7 °C 1016.1 hPa ESE 1.6 km/h 6.4 km/h 63 % 0.0 mm
16:32 16.0 °C 10.1 °C 1016.5 hPa South 11.3 km/h 11.3 km/h 68 % 0.0 mm
16:42 15.4 °C 9.3 °C 1016.5 hPa SSW 16.1 km/h 29.0 km/h 67 % 0.0 mm
16:47 15.2 °C 9.1 °C 1016.5 hPa South 9.7 km/h 22.5 km/h 67 % 0.0 mm
16:52 15.0 °C 8.7 °C 1016.5 hPa SSE 8.0 km/h 22.5 km/h 66 % 0.0 mm
16:57 14.9 °C 8.6 °C 1016.5 hPa SSW 3.2 km/h 20.9 km/h 66 % 0.0 mm
17:02 14.8 °C 8.7 °C 1016.5 hPa South 3.2 km/h 20.9 km/h 67 % 0.0 mm
17:12 14.7 °C 8.9 °C 1016.5 hPa SSE 4.8 km/h 16.1 km/h 68 % 0.0 mm
17:17 14.6 °C 8.8 °C 1016.1 hPa SSW 3.2 km/h 12.9 km/h 68 % 0.0 mm
17:22 14.6 °C 8.3 °C 1016.1 hPa SSE 3.2 km/h 8.0 km/h 66 % 0.0 mm
17:32 14.5 °C 8.2 °C 1016.1 hPa South 1.6 km/h 8.0 km/h 66 % 0.0 mm
17:37 14.4 °C 8.3 °C 1016.1 hPa WSW 1.6 km/h 8.0 km/h 67 % 0.0 mm
17:42 14.4 °C 7.9 °C 1016.1 hPa Calm   4.8 km/h 65 % 0.0 mm
17:47 14.4 °C 7.9 °C 1016.1 hPa Calm   3.2 km/h 65 % 0.0 mm
17:52 14.4 °C 7.9 °C 1016.1 hPa Calm   3.2 km/h 65 % 0.0 mm
17:57 14.4 °C 8.1 °C 1016.1 hPa Calm   3.2 km/h 66 % 0.0 mm
18:02 14.4 °C 8.1 °C 1016.1 hPa Calm   1.6 km/h 66 % 0.0 mm
18:12 14.4 °C 8.3 °C 1016.1 hPa Calm     67 % 0.0 mm
18:17 14.3 °C 8.5 °C 1016.1 hPa Calm     68 % 0.0 mm
18:22 14.2 °C 8.6 °C 1016.5 hPa Calm     69 % 0.0 mm
18:32 14.1 °C 8.3 °C 1016.5 hPa Calm     68 % 0.0 mm
18:42 14.0 °C 8.6 °C 1016.5 hPa Calm     70 % 0.0 mm
18:52 13.8 °C 8.8 °C 1016.5 hPa East 3.2 km/h 6.4 km/h 72 % 0.0 mm
18:57 13.8 °C 8.8 °C 1016.5 hPa ESE 3.2 km/h 6.4 km/h 72 % 0.0 mm
19:02 13.7 °C 8.7 °C 1016.5 hPa East 3.2 km/h 8.0 km/h 72 % 0.0 mm
19:07 13.6 °C 8.6 °C 1016.8 hPa SE 3.2 km/h 8.0 km/h 72 % 0.0 mm
19:12 13.6 °C 8.2 °C 1016.8 hPa Calm   8.0 km/h 70 % 0.0 mm
19:17 13.5 °C 8.3 °C 1016.8 hPa East 3.2 km/h 6.4 km/h 71 % 0.0 mm
19:22 13.5 °C 8.1 °C 1016.8 hPa East 3.2 km/h 6.4 km/h 70 % 0.0 mm
19:32 13.4 °C 8.0 °C 1017.2 hPa Calm   4.8 km/h 70 % 0.0 mm
19:42 13.2 °C 8.1 °C 1017.2 hPa Calm   4.8 km/h 71 % 0.0 mm
19:47 13.2 °C 8.3 °C 1017.2 hPa ESE 1.6 km/h 4.8 km/h 72 % 0.0 mm
19:52 13.1 °C 8.2 °C 1017.2 hPa Calm   4.8 km/h 72 % 0.0 mm
19:57 13.1 °C 7.8 °C 1017.2 hPa ENE 3.2 km/h 4.8 km/h 70 % 0.0 mm
20:02 13.2 °C 7.4 °C 1017.2 hPa Calm   4.8 km/h 68 % 0.0 mm
20:12 13.2 °C 7.2 °C 1016.8 hPa Calm   6.4 km/h 67 % 0.0 mm
20:22 13.3 °C 7.1 °C 1017.2 hPa East 1.6 km/h 3.2 km/h 66 % 0.0 mm
20:27 13.3 °C 6.9 °C 1017.2 hPa East 3.2 km/h 3.2 km/h 65 % 0.0 mm
20:32 13.2 °C 7.0 °C 1017.2 hPa Calm   3.2 km/h 66 % 0.0 mm
20:37 13.1 °C 6.9 °C 1017.2 hPa Calm   4.8 km/h 66 % 0.0 mm
20:42 13.0 °C 7.0 °C 1017.2 hPa Calm   4.8 km/h 67 % 0.0 mm
20:47 12.9 °C 7.1 °C 1017.2 hPa Calm   3.2 km/h 68 % 0.0 mm
20:52 12.8 °C 7.3 °C 1017.2 hPa Calm   3.2 km/h 69 % 0.0 mm
20:57 12.6 °C 7.5 °C 1017.2 hPa Calm   1.6 km/h 71 % 0.0 mm
21:02 12.6 °C 7.1 °C 1017.2 hPa Calm   1.6 km/h 69 % 0.0 mm
21:12 12.5 °C 7.0 °C 1017.2 hPa SSE 1.6 km/h 3.2 km/h 69 % 0.0 mm
21:17 12.4 °C 7.1 °C 1017.2 hPa Calm   3.2 km/h 70 % 0.0 mm
21:22 12.3 °C 7.4 °C 1017.2 hPa Calm   1.6 km/h 72 % 0.0 mm
21:27 12.2 °C 7.1 °C 1017.2 hPa Calm   1.6 km/h 71 % 0.0 mm
21:32 12.2 °C 7.1 °C 1017.5 hPa East 1.6 km/h 1.6 km/h 71 % 0.0 mm
21:37 12.2 °C 6.9 °C 1017.5 hPa ENE 1.6 km/h 3.2 km/h 70 % 0.0 mm
21:42 12.2 °C 6.7 °C 1017.5 hPa Calm   3.2 km/h 69 % 0.0 mm
21:47 12.4 °C 6.9 °C 1017.5 hPa SE 1.6 km/h 3.2 km/h 69 % 0.0 mm
21:52 12.3 °C 6.6 °C 1017.2 hPa SE 3.2 km/h 4.8 km/h 68 % 0.0 mm
21:57 12.3 °C 6.8 °C 1017.2 hPa SSE 1.6 km/h 4.8 km/h 69 % 0.0 mm
22:02 12.2 °C 7.1 °C 1017.2 hPa South 3.2 km/h 4.8 km/h 71 % 0.0 mm
22:12 12.1 °C 7.4 °C 1017.5 hPa Calm   3.2 km/h 73 % 0.0 mm
22:17 11.9 °C 7.4 °C 1017.5 hPa Calm   3.2 km/h 74 % 0.0 mm
22:22 11.8 °C 7.3 °C 1017.2 hPa Calm   3.2 km/h 74 % 0.0 mm
22:32 11.7 °C 7.4 °C 1017.2 hPa Calm   1.6 km/h 75 % 0.0 mm
22:37 11.6 °C 7.3 °C 1017.2 hPa Calm   1.6 km/h 75 % 0.0 mm
22:42 11.5 °C 7.2 °C 1017.2 hPa Calm   1.6 km/h 75 % 0.0 mm
22:52 11.1 °C 7.2 °C 1017.5 hPa ENE 1.6 km/h 1.6 km/h 77 % 0.0 mm
22:57 10.9 °C 7.4 °C 1017.5 hPa Calm   3.2 km/h 79 % 0.0 mm
23:02 10.9 °C 7.4 °C 1017.5 hPa Calm   3.2 km/h 79 % 0.0 mm
23:12 10.9 °C 7.4 °C 1017.5 hPa Calm   3.2 km/h 79 % 0.0 mm
23:17 10.9 °C 7.4 °C 1017.5 hPa Calm   1.6 km/h 79 % 0.0 mm
23:22 10.8 °C 7.3 °C 1017.8 hPa Calm   1.6 km/h 79 % 0.0 mm
23:27 10.6 °C 7.3 °C 1017.5 hPa Calm   1.6 km/h 80 % 0.0 mm
23:32 10.5 °C 7.4 °C 1017.5 hPa Calm   1.6 km/h 81 % 0.0 mm
23:37 10.4 °C 7.3 °C 1017.5 hPa Calm     81 % 0.0 mm
23:42 10.3 °C 7.4 °C 1017.8 hPa Calm     82 % 0.0 mm
23:52 10.3 °C 7.4 °C 1017.8 hPa Calm   1.6 km/h 82 % 0.0 mm
23:57 10.3 °C 7.4 °C 1017.8 hPa Calm   1.6 km/h 82 % 0.0 mm
Meteo18
Compliments of Weather Underground - 4 mb

Script developed by  Jim McMurry - jmcmurry@mwt.net Adapted for the template by  Wim van der Kuil - Leuven-Template.eu

You find our weather info also at:

European Weather Network

Weather Underground

Equipment we use:

Weather-station
Davis Vue

Weather-program
Meteohub

Weather-server
Raspberry PI 2 B+

Provider
1 and 1

Davis Vue

Meteohub

Raspberry PI 2 B+

1 and 1